Terminal Aerodrome Forecast
Issued by NWS

Home | Current Version | Previous Version | Text Only | Print | Product List | Glossary On
Versions: 1 2 3 4 5 6 7 8 9 10 11 12 13 14 15 16 17 18 19 20 21 22 23 24 25 26 27 28 29 30 31
000
FTUS46 KPDT 161721
TAFALW
TAF
KALW 161721Z 1618/1718 05005KT 1 1/2SM -SN BR OVC012
     FM162000 VRB03KT 5SM BR BKN018
     FM170300 VRB04KT 3SM -SN BR OVC015
     FM171600 21005KT 5SM -SGPL BR BKN020 OVC050=

USA.gov is the U.S. government's official web portal to all federal, state and local government web resources and services.